createdAt,value
2018-08-31T00:02:23.483Z,20.01
2018-08-31T00:05:00.543Z,19.92
2018-08-31T00:07:53.484Z,19.87
2018-08-31T00:10:20.926Z,19.79
2018-08-31T00:12:48.350Z,19.77
2018-08-31T00:15:15.743Z,19.66
2018-08-31T00:17:43.144Z,19.63
2018-08-31T00:20:10.559Z,19.54
2018-08-31T00:22:37.965Z,19.44
2018-08-31T00:25:05.427Z,19.39
2018-08-31T00:27:44.695Z,19.29
2018-08-31T00:33:15.465Z,19.59
2018-08-31T00:35:42.882Z,19.66
2018-08-31T00:38:10.266Z,19.63
2018-08-31T00:40:37.683Z,19.59
2018-08-31T00:43:05.150Z,19.45
2018-08-31T00:45:32.557Z,19.33
2018-08-31T00:48:00.024Z,19.38
2018-08-31T00:50:27.442Z,19.42
2018-08-31T00:52:54.883Z,19.44
2018-08-31T00:55:22.339Z,19.44
2018-08-31T00:57:49.761Z,19.50
2018-08-31T01:00:17.151Z,19.46
2018-08-31T01:02:44.583Z,19.38
2018-08-31T01:05:11.973Z,19.32
2018-08-31T01:07:39.419Z,19.30
2018-08-31T01:10:06.851Z,19.26
2018-08-31T01:12:34.287Z,19.30
2018-08-31T01:15:01.695Z,19.30
2018-08-31T01:17:29.137Z,19.15
2018-08-31T01:19:56.538Z,19.16
2018-08-31T01:22:23.958Z,19.19
2018-08-31T01:24:51.481Z,19.17
2018-08-31T01:27:18.881Z,19.09
2018-08-31T01:29:46.362Z,19.06
2018-08-31T01:32:13.800Z,18.95
2018-08-31T01:34:41.240Z,18.85
2018-08-31T01:37:08.633Z,18.90
2018-08-31T01:39:36.040Z,18.90
2018-08-31T01:42:03.450Z,18.76
2018-08-31T01:44:30.883Z,18.64
2018-08-31T01:46:58.279Z,18.62
2018-08-31T01:49:25.683Z,18.59
2018-08-31T01:51:53.495Z,18.52
2018-08-31T01:54:20.925Z,18.38
2018-08-31T01:56:48.335Z,18.45
2018-08-31T01:59:15.795Z,18.59
2018-08-31T02:01:43.234Z,18.57
2018-08-31T02:04:10.720Z,18.58
2018-08-31T02:06:38.082Z,18.57
2018-08-31T02:09:05.510Z,18.65
2018-08-31T02:11:32.930Z,18.77
2018-08-31T02:14:00.709Z,18.85
2018-08-31T02:16:28.113Z,18.91
2018-08-31T02:18:55.536Z,18.96
2018-08-31T02:21:22.944Z,18.88
2018-08-31T02:23:50.373Z,18.86
2018-08-31T02:26:17.775Z,18.84
2018-08-31T02:28:45.187Z,18.87
2018-08-31T02:31:12.652Z,18.85
2018-08-31T02:33:40.132Z,18.88
2018-08-31T02:36:07.573Z,18.92
2018-08-31T02:38:34.974Z,18.93
2018-08-31T02:41:02.413Z,18.84
2018-08-31T02:43:29.857Z,18.73
2018-08-31T02:45:57.288Z,18.55
2018-08-31T02:48:24.898Z,18.61
2018-08-31T02:50:52.363Z,18.69
2018-08-31T02:53:19.832Z,18.79
2018-08-31T02:55:47.292Z,18.85
2018-08-31T02:58:15.024Z,18.85
2018-08-31T03:00:42.498Z,18.77
2018-08-31T03:03:09.976Z,18.69
2018-08-31T03:05:37.704Z,18.67
2018-08-31T03:08:05.148Z,18.63
2018-08-31T03:10:32.553Z,18.70
2018-08-31T03:13:00.228Z,18.75
2018-08-31T03:15:27.698Z,18.70
2018-08-31T03:17:55.107Z,18.69
2018-08-31T03:20:22.723Z,18.73
2018-08-31T03:22:50.195Z,18.72
2018-08-31T03:25:17.786Z,18.75
2018-08-31T03:27:45.225Z,18.78
2018-08-31T03:30:12.729Z,18.78
2018-08-31T03:32:40.206Z,18.80
2018-08-31T03:35:07.701Z,18.81
2018-08-31T03:37:35.145Z,18.80
2018-08-31T03:40:02.573Z,18.77
2018-08-31T03:42:30.072Z,18.75
2018-08-31T03:44:57.528Z,18.64
2018-08-31T03:47:24.976Z,18.53
2018-08-31T03:49:52.422Z,18.58
2018-08-31T03:52:19.865Z,18.67
2018-08-31T03:54:47.303Z,18.67
2018-08-31T03:57:14.788Z,18.56
2018-08-31T03:59:42.253Z,18.36
2018-08-31T04:02:09.639Z,18.42
2018-08-31T04:04:37.585Z,18.55
2018-08-31T04:07:05.027Z,18.56
2018-08-31T04:09:33.304Z,18.45
2018-08-31T04:12:00.756Z,18.47
2018-08-31T04:14:28.153Z,18.59
2018-08-31T04:16:55.606Z,18.63
2018-08-31T04:19:23.025Z,18.60
2018-08-31T04:21:50.469Z,18.49
2018-08-31T04:24:17.895Z,18.45
2018-08-31T04:26:45.380Z,18.42
2018-08-31T04:29:12.787Z,18.41
2018-08-31T04:31:40.211Z,18.36
2018-08-31T04:34:07.709Z,18.38
2018-08-31T04:36:35.172Z,18.45
2018-08-31T04:39:02.606Z,18.50
2018-08-31T04:41:30.066Z,18.54
2018-08-31T04:43:57.501Z,18.58
2018-08-31T04:46:25.542Z,18.60
2018-08-31T04:48:53.011Z,18.64
2018-08-31T04:51:20.444Z,18.60
2018-08-31T04:53:47.839Z,18.59
2018-08-31T04:56:15.238Z,18.63
2018-08-31T04:58:42.749Z,18.64
2018-08-31T05:01:10.130Z,18.66
2018-08-31T05:03:37.574Z,18.69
2018-08-31T05:06:05.033Z,18.70
2018-08-31T05:08:32.491Z,18.74
2018-08-31T05:11:00.059Z,18.79
2018-08-31T05:13:27.523Z,18.81
2018-08-31T05:15:54.931Z,18.82
2018-08-31T05:18:22.335Z,18.89
2018-08-31T05:20:49.826Z,18.92
2018-08-31T05:23:17.333Z,18.97
2018-08-31T05:25:44.808Z,19.02
2018-08-31T05:28:13.102Z,19.00
2018-08-31T05:30:40.547Z,19.01
2018-08-31T05:33:07.983Z,19.02
2018-08-31T05:35:35.392Z,19.05
2018-08-31T05:38:03.064Z,19.06
2018-08-31T05:40:30.468Z,19.08
2018-08-31T05:42:57.933Z,19.09
2018-08-31T05:45:25.402Z,19.01
2018-08-31T05:47:52.896Z,18.87
2018-08-31T05:50:20.374Z,18.85
2018-08-31T05:52:47.996Z,18.86
2018-08-31T05:55:15.439Z,18.81
2018-08-31T05:57:42.878Z,18.79
2018-08-31T06:00:10.305Z,18.81
2018-08-31T06:02:37.731Z,18.90
2018-08-31T06:05:05.235Z,18.93
2018-08-31T06:07:32.712Z,19.06
2018-08-31T06:10:00.225Z,19.24
2018-08-31T06:12:27.684Z,19.25
2018-08-31T06:14:55.115Z,19.10
2018-08-31T06:17:22.526Z,19.20
2018-08-31T06:19:49.963Z,19.26
2018-08-31T06:22:17.409Z,19.21
2018-08-31T06:24:44.845Z,19.21
2018-08-31T06:27:12.380Z,19.27
2018-08-31T06:29:39.712Z,19.37
2018-08-31T06:32:07.217Z,19.50
2018-08-31T06:34:34.681Z,19.60
2018-08-31T06:37:02.162Z,19.71
2018-08-31T06:39:29.566Z,19.62
2018-08-31T06:41:57.021Z,19.77
2018-08-31T06:44:24.528Z,19.89
2018-08-31T06:46:51.970Z,19.99
2018-08-31T06:49:19.409Z,20.09
2018-08-31T06:51:46.961Z,20.22
2018-08-31T06:54:14.556Z,20.33
2018-08-31T06:56:41.946Z,20.40
2018-08-31T06:59:09.493Z,20.52
2018-08-31T07:01:37.075Z,20.61
2018-08-31T07:04:04.532Z,20.78
2018-08-31T07:06:32.029Z,20.97
2018-08-31T07:08:59.729Z,21.10
2018-08-31T07:11:27.802Z,21.26
2018-08-31T07:13:55.266Z,21.33
2018-08-31T07:16:22.710Z,21.36
2018-08-31T07:18:50.184Z,21.24
2018-08-31T07:21:17.609Z,21.21
2018-08-31T07:23:45.193Z,21.16
2018-08-31T07:26:12.779Z,21.14
2018-08-31T07:28:40.208Z,21.13
2018-08-31T07:31:07.651Z,21.21
2018-08-31T07:33:35.066Z,21.21
2018-08-31T07:36:02.554Z,21.26
2018-08-31T07:38:30.015Z,21.27
2018-08-31T07:40:57.479Z,21.28
2018-08-31T07:43:24.955Z,21.41
2018-08-31T07:45:52.526Z,21.42
2018-08-31T07:48:19.986Z,21.53
2018-08-31T07:50:47.658Z,21.66
2018-08-31T07:53:15.067Z,21.72
2018-08-31T07:55:42.507Z,21.80
2018-08-31T07:58:09.988Z,21.97
2018-08-31T08:00:37.432Z,22.05
2018-08-31T08:03:04.827Z,22.21
2018-08-31T08:05:32.322Z,22.22
2018-08-31T08:08:00.013Z,22.18
2018-08-31T08:10:27.484Z,22.24
2018-08-31T08:12:54.966Z,22.39
2018-08-31T08:15:22.414Z,22.52
2018-08-31T08:17:49.906Z,22.44
2018-08-31T08:20:17.444Z,22.48
2018-08-31T08:22:44.894Z,22.60
2018-08-31T08:25:12.362Z,22.74
2018-08-31T08:27:39.831Z,22.78
2018-08-31T08:30:07.325Z,22.91
2018-08-31T08:32:34.814Z,22.93
2018-08-31T08:35:02.401Z,22.92
2018-08-31T08:37:29.839Z,22.79
2018-08-31T08:39:57.276Z,22.83
2018-08-31T08:42:25.671Z,22.84
2018-08-31T08:44:53.174Z,22.89
2018-08-31T08:47:21.231Z,22.89
2018-08-31T08:49:48.692Z,22.88
2018-08-31T08:52:16.189Z,23.05
2018-08-31T08:54:44.159Z,23.22
2018-08-31T08:57:11.756Z,23.39
2018-08-31T08:59:39.444Z,23.59
2018-08-31T09:02:06.918Z,23.90
2018-08-31T09:04:34.361Z,24.18
2018-08-31T09:07:01.803Z,24.35
2018-08-31T09:09:29.428Z,24.71
2018-08-31T09:11:56.964Z,24.89
2018-08-31T09:14:24.310Z,24.83
2018-08-31T09:16:51.763Z,24.82
2018-08-31T09:19:19.266Z,24.69
2018-08-31T09:21:46.710Z,24.61
2018-08-31T09:24:14.147Z,24.62
2018-08-31T09:26:41.579Z,24.45
2018-08-31T09:29:09.017Z,24.11
2018-08-31T09:31:36.517Z,24.13
2018-08-31T09:34:03.918Z,24.18
2018-08-31T09:36:31.419Z,24.05
2018-08-31T09:38:58.826Z,24.12
2018-08-31T09:41:26.311Z,24.30
2018-08-31T09:43:53.829Z,24.17
2018-08-31T09:46:21.198Z,23.98
2018-08-31T09:48:48.675Z,23.92
2018-08-31T09:51:16.131Z,24.09
2018-08-31T09:53:43.699Z,24.34
2018-08-31T09:56:11.216Z,24.59
2018-08-31T09:58:38.656Z,24.91
2018-08-31T10:01:06.118Z,25.00
2018-08-31T10:03:33.721Z,24.90
2018-08-31T10:06:01.230Z,24.74
2018-08-31T10:08:28.793Z,24.78
2018-08-31T10:10:56.335Z,25.12
2018-08-31T10:13:23.799Z,25.25
2018-08-31T10:15:51.248Z,25.25
2018-08-31T10:18:18.714Z,25.40
2018-08-31T10:20:46.261Z,25.74
2018-08-31T10:23:13.263Z,26.10
2018-08-31T10:25:40.277Z,26.12
2018-08-31T10:28:07.767Z,26.16
2018-08-31T10:30:35.260Z,26.28
2018-08-31T10:33:02.761Z,26.45
2018-08-31T10:35:30.237Z,26.25
2018-08-31T10:37:57.666Z,26.46
2018-08-31T10:40:25.172Z,26.46
2018-08-31T10:42:52.606Z,26.56
2018-08-31T10:45:19.590Z,26.52
2018-08-31T10:47:47.020Z,26.51
2018-08-31T10:50:14.530Z,26.68
2018-08-31T10:52:42.072Z,26.77
2018-08-31T10:55:09.541Z,26.88
2018-08-31T10:57:37.302Z,26.71
2018-08-31T11:00:04.379Z,26.58
2018-08-31T11:02:32.064Z,26.49
2018-08-31T11:05:05.329Z,26.72
2018-08-31T11:07:32.830Z,27.13
2018-08-31T11:10:00.252Z,27.18
2018-08-31T11:12:27.295Z,27.53
2018-08-31T11:14:54.254Z,27.91
2018-08-31T11:17:21.663Z,28.55
2018-08-31T11:19:49.188Z,29.13
2018-08-31T11:22:16.662Z,28.92
2018-08-31T11:24:44.146Z,28.25
2018-08-31T11:27:11.661Z,27.47
2018-08-31T11:29:39.123Z,27.67
2018-08-31T11:32:06.563Z,27.75
2018-08-31T11:34:34.045Z,28.03
2018-08-31T11:37:01.541Z,28.66
2018-08-31T11:39:29.046Z,28.83
2018-08-31T11:41:56.444Z,27.38
2018-08-31T11:44:23.922Z,26.12
2018-08-31T11:46:51.347Z,25.38
2018-08-31T11:49:18.839Z,25.11
2018-08-31T11:51:46.317Z,24.82
2018-08-31T11:54:13.884Z,24.74
2018-08-31T11:56:41.341Z,24.78
2018-08-31T11:59:08.853Z,24.80
2018-08-31T12:01:36.343Z,24.72
2018-08-31T12:04:03.830Z,24.67
2018-08-31T12:06:31.241Z,24.76
2018-08-31T12:08:58.695Z,24.66
2018-08-31T12:11:26.172Z,24.55
2018-08-31T12:13:54.583Z,24.48
2018-08-31T12:16:22.083Z,24.34
2018-08-31T12:18:49.515Z,24.46
2018-08-31T12:21:17.191Z,24.62
2018-08-31T12:23:44.626Z,24.67
2018-08-31T12:26:12.138Z,24.92
2018-08-31T12:28:39.573Z,25.11
2018-08-31T12:31:07.091Z,25.18
2018-08-31T12:33:34.502Z,25.81
2018-08-31T12:36:01.975Z,26.54
2018-08-31T12:38:29.372Z,27.08
2018-08-31T12:40:56.937Z,27.46
2018-08-31T12:43:24.356Z,27.62
2018-08-31T12:45:51.768Z,26.98
2018-08-31T12:48:19.189Z,27.02
2018-08-31T12:50:46.636Z,26.88
2018-08-31T12:53:14.037Z,26.62
2018-08-31T12:55:41.694Z,26.50
2018-08-31T12:58:09.320Z,26.28
2018-08-31T13:00:36.788Z,26.08
2018-08-31T13:03:04.216Z,25.86
2018-08-31T13:05:31.694Z,25.78
2018-08-31T13:07:59.140Z,25.62
2018-08-31T13:10:26.635Z,25.78
2018-08-31T13:12:54.131Z,25.65
2018-08-31T13:15:21.569Z,25.60
2018-08-31T13:17:49.174Z,25.98
2018-08-31T13:20:16.612Z,26.03
2018-08-31T13:22:44.050Z,25.83
2018-08-31T13:25:11.563Z,25.59
2018-08-31T13:27:39.014Z,25.45
2018-08-31T13:30:06.655Z,25.64
2018-08-31T13:32:34.090Z,25.77
2018-08-31T13:35:01.650Z,25.93
2018-08-31T13:37:29.168Z,25.83
2018-08-31T13:39:56.621Z,25.53
2018-08-31T13:42:24.111Z,25.43
2018-08-31T13:44:51.585Z,25.02
2018-08-31T13:47:19.029Z,24.72
2018-08-31T13:49:46.473Z,24.53
2018-08-31T13:52:13.936Z,24.63
2018-08-31T13:54:41.370Z,24.53
2018-08-31T13:57:08.837Z,24.36
2018-08-31T13:59:36.314Z,24.21
2018-08-31T14:02:03.895Z,24.15
2018-08-31T14:04:31.363Z,24.09
2018-08-31T14:06:58.838Z,24.07
2018-08-31T14:09:26.349Z,24.04
2018-08-31T14:11:53.850Z,23.91
2018-08-31T14:14:21.258Z,23.70
2018-08-31T14:16:48.769Z,23.61
2018-08-31T14:19:16.634Z,23.73
2018-08-31T14:21:44.061Z,23.82
2018-08-31T14:24:11.654Z,23.87
2018-08-31T14:26:39.159Z,23.88
2018-08-31T14:29:06.602Z,23.79
2018-08-31T14:31:34.133Z,23.86
2018-08-31T14:34:01.628Z,23.88
2018-08-31T14:36:29.198Z,23.89
2018-08-31T14:38:56.574Z,23.87
2018-08-31T14:41:24.162Z,23.75
2018-08-31T14:43:51.586Z,23.74
2018-08-31T14:46:19.055Z,23.68
2018-08-31T14:48:46.512Z,23.64
2018-08-31T14:51:13.961Z,23.63
2018-08-31T14:53:41.376Z,23.60
2018-08-31T14:56:08.816Z,23.55
2018-08-31T14:58:36.305Z,23.52
2018-08-31T15:01:03.759Z,23.46
2018-08-31T15:03:31.196Z,23.40
2018-08-31T15:05:59.274Z,23.35
2018-08-31T15:08:26.845Z,23.46
2018-08-31T15:10:54.258Z,23.38
2018-08-31T15:13:21.778Z,23.21
2018-08-31T15:15:49.185Z,23.07
2018-08-31T15:18:16.656Z,23.11
2018-08-31T15:20:44.111Z,23.10
2018-08-31T15:23:11.703Z,23.03
2018-08-31T15:25:39.249Z,23.02
2018-08-31T15:28:07.372Z,23.11
2018-08-31T15:30:35.731Z,23.04
2018-08-31T15:33:03.191Z,22.99
2018-08-31T15:35:30.608Z,23.08
2018-08-31T15:37:58.074Z,23.19
2018-08-31T15:40:25.506Z,23.17
2018-08-31T15:42:53.093Z,23.13
2018-08-31T15:45:20.561Z,23.03
2018-08-31T15:47:48.012Z,23.01
2018-08-31T15:50:15.494Z,23.05
2018-08-31T15:52:43.012Z,23.23
2018-08-31T15:55:10.402Z,23.63
2018-08-31T15:57:38.460Z,23.92
2018-08-31T16:00:05.911Z,24.00
2018-08-31T16:02:33.447Z,23.74
2018-08-31T16:05:00.861Z,23.48
2018-08-31T16:07:28.358Z,23.40
2018-08-31T16:09:55.767Z,23.44
2018-08-31T16:12:23.236Z,23.36
2018-08-31T16:14:50.829Z,23.03
2018-08-31T16:17:18.282Z,22.87
2018-08-31T16:19:45.732Z,22.72
2018-08-31T16:22:13.197Z,22.65
2018-08-31T16:24:40.622Z,22.70
2018-08-31T16:27:08.072Z,22.74
2018-08-31T16:29:35.488Z,22.77
2018-08-31T16:32:02.891Z,22.72
2018-08-31T16:34:30.360Z,22.58
2018-08-31T16:36:57.866Z,22.42
2018-08-31T16:39:26.044Z,22.39
2018-08-31T16:41:53.492Z,22.07
2018-08-31T16:44:20.951Z,22.10
2018-08-31T16:46:48.448Z,22.09
2018-08-31T16:49:15.899Z,22.00
2018-08-31T16:51:43.320Z,22.00
2018-08-31T16:54:10.797Z,21.96
2018-08-31T16:56:38.272Z,21.90
2018-08-31T16:59:05.715Z,21.96
2018-08-31T17:01:33.162Z,21.92
2018-08-31T17:04:00.635Z,21.89
2018-08-31T17:06:28.128Z,21.81
2018-08-31T17:08:56.213Z,21.58
2018-08-31T17:11:25.664Z,21.40
2018-08-31T17:13:53.178Z,21.48
2018-08-31T17:16:20.672Z,21.48
2018-08-31T17:18:48.149Z,21.36
2018-08-31T17:21:15.589Z,21.29
2018-08-31T17:23:43.040Z,21.25
2018-08-31T17:26:10.492Z,21.33
2018-08-31T17:31:30.133Z,21.45
2018-08-31T17:37:10.770Z,21.45
2018-08-31T17:39:38.264Z,21.40
2018-08-31T17:42:05.716Z,21.30
2018-08-31T17:44:33.223Z,21.05
2018-08-31T17:47:00.693Z,21.03
2018-08-31T17:49:28.113Z,21.01
2018-08-31T17:51:55.508Z,20.96
2018-08-31T17:54:22.946Z,20.90
2018-08-31T17:56:50.405Z,20.70
2018-08-31T17:59:17.801Z,20.56
2018-08-31T18:01:45.256Z,20.50
2018-08-31T18:04:12.781Z,20.49
2018-08-31T18:06:40.172Z,20.51
2018-08-31T18:09:07.653Z,20.48
2018-08-31T18:11:35.148Z,20.34
2018-08-31T18:14:02.628Z,20.29
2018-08-31T18:16:30.122Z,20.27
2018-08-31T18:18:57.630Z,20.25
2018-08-31T18:21:25.231Z,20.24
2018-08-31T18:23:53.557Z,20.22
2018-08-31T18:26:20.976Z,20.19
2018-08-31T18:28:48.436Z,20.19
2018-08-31T18:31:15.974Z,20.15
2018-08-31T18:33:43.418Z,20.09
2018-08-31T18:36:11.041Z,20.09
2018-08-31T18:38:38.721Z,20.12
2018-08-31T18:41:06.185Z,20.16
2018-08-31T18:43:33.665Z,20.17
2018-08-31T18:46:01.139Z,20.16
2018-08-31T18:48:28.655Z,20.10
2018-08-31T18:50:56.119Z,20.09
2018-08-31T18:53:23.749Z,20.05
2018-08-31T18:55:51.150Z,19.94
2018-08-31T18:58:18.617Z,19.87
2018-08-31T19:00:46.054Z,19.76
2018-08-31T19:03:14.179Z,19.73
2018-08-31T19:05:42.507Z,19.65
2018-08-31T19:08:10.054Z,19.54
2018-08-31T19:10:37.546Z,19.46
2018-08-31T19:13:05.007Z,19.44
2018-08-31T19:15:32.520Z,19.35
2018-08-31T19:18:00.027Z,19.19
2018-08-31T19:20:27.517Z,19.08
2018-08-31T19:22:54.996Z,19.08
2018-08-31T19:25:22.514Z,19.13
2018-08-31T19:27:50.076Z,19.00
2018-08-31T19:30:17.482Z,18.99
2018-08-31T19:32:44.955Z,19.00
2018-08-31T19:35:12.420Z,18.72
2018-08-31T19:37:39.885Z,18.42
2018-08-31T19:40:07.455Z,18.24
2018-08-31T19:42:34.911Z,18.16
2018-08-31T19:45:02.337Z,18.14
2018-08-31T19:47:29.924Z,18.10
2018-08-31T19:49:57.359Z,18.05
2018-08-31T19:52:25.274Z,18.09
2018-08-31T19:54:52.670Z,18.06
2018-08-31T19:57:20.090Z,18.06
2018-08-31T19:59:47.542Z,18.06
2018-08-31T20:02:14.973Z,18.14
2018-08-31T20:04:42.464Z,18.14
2018-08-31T20:07:09.895Z,18.10
2018-08-31T20:09:37.355Z,18.07
2018-08-31T20:12:04.832Z,18.13
2018-08-31T20:14:33.032Z,18.14
2018-08-31T20:17:00.488Z,18.08
2018-08-31T20:19:27.956Z,18.01
2018-08-31T20:21:55.379Z,17.98
2018-08-31T20:24:22.823Z,18.01
2018-08-31T20:26:50.249Z,17.96
2018-08-31T20:29:17.803Z,17.82
2018-08-31T20:31:45.240Z,17.71
2018-08-31T20:34:12.642Z,17.62
2018-08-31T20:36:40.115Z,17.57
2018-08-31T20:39:07.520Z,17.55
2018-08-31T20:41:35.215Z,17.55
2018-08-31T20:44:02.676Z,17.58
2018-08-31T20:46:30.204Z,17.59
2018-08-31T20:48:57.577Z,17.61
2018-08-31T20:51:25.109Z,17.64
2018-08-31T20:53:52.544Z,17.65
2018-08-31T20:56:19.934Z,17.62
2018-08-31T20:58:47.341Z,17.60
2018-08-31T21:01:14.815Z,17.62
2018-08-31T21:03:42.428Z,17.67
2018-08-31T21:06:09.828Z,17.71
2018-08-31T21:08:37.459Z,17.84
2018-08-31T21:11:04.918Z,17.98
2018-08-31T21:13:32.443Z,17.96
2018-08-31T21:16:00.121Z,18.05
2018-08-31T21:18:27.560Z,18.12
2018-08-31T21:20:55.102Z,18.15
2018-08-31T21:23:22.725Z,18.22
2018-08-31T21:25:50.161Z,18.28
2018-08-31T21:28:17.748Z,18.29
2018-08-31T21:30:45.156Z,18.25
2018-08-31T21:33:12.643Z,18.26
2018-08-31T21:35:40.120Z,18.25
2018-08-31T21:38:07.558Z,18.20
2018-08-31T21:40:35.006Z,18.07
2018-08-31T21:43:02.537Z,18.13
2018-08-31T21:45:29.976Z,18.22
2018-08-31T21:47:57.398Z,18.34
2018-08-31T21:50:24.923Z,18.32
2018-08-31T21:52:52.518Z,18.22
2018-08-31T21:55:20.078Z,18.25
2018-08-31T21:57:47.535Z,18.23
2018-08-31T22:00:14.972Z,18.19
2018-08-31T22:02:42.386Z,18.14
2018-08-31T22:05:09.802Z,18.06
2018-08-31T22:07:37.230Z,18.08
2018-08-31T22:10:04.713Z,17.95
2018-08-31T22:12:32.134Z,17.78
2018-08-31T22:14:59.539Z,17.83
2018-08-31T22:17:27.009Z,17.84
2018-08-31T22:19:54.524Z,17.87
2018-08-31T22:22:21.967Z,17.85
2018-08-31T22:24:49.491Z,17.91
2018-08-31T22:27:16.968Z,17.87
2018-08-31T22:29:44.387Z,17.84
2018-08-31T22:32:11.827Z,17.86
2018-08-31T22:34:39.254Z,17.84
2018-08-31T22:37:06.709Z,17.92
2018-08-31T22:39:34.236Z,17.91
2018-08-31T22:42:02.576Z,17.81
2018-08-31T22:44:30.087Z,17.77
2018-08-31T22:46:57.534Z,17.81
2018-08-31T22:49:24.941Z,17.84
2018-08-31T22:51:52.401Z,17.61
2018-08-31T22:54:19.816Z,17.67
2018-08-31T22:56:47.291Z,17.81
2018-08-31T22:59:14.770Z,17.82
2018-08-31T23:01:42.332Z,17.75
2018-08-31T23:04:09.800Z,17.61
2018-08-31T23:06:37.319Z,17.50
2018-08-31T23:09:04.872Z,17.53
2018-08-31T23:11:32.367Z,17.47
2018-08-31T23:13:59.895Z,17.53
2018-08-31T23:16:27.327Z,17.67
2018-08-31T23:18:54.738Z,17.64
2018-08-31T23:21:22.872Z,17.59
2018-08-31T23:23:50.315Z,17.54
2018-08-31T23:26:17.702Z,17.47
2018-08-31T23:28:45.145Z,17.44
2018-08-31T23:31:12.580Z,17.35
2018-08-31T23:33:40.028Z,17.27
2018-08-31T23:36:07.532Z,17.33
2018-08-31T23:38:35.047Z,17.39
2018-08-31T23:41:02.485Z,17.45
2018-08-31T23:43:29.931Z,17.51
2018-08-31T23:45:58.077Z,17.49
2018-08-31T23:48:25.524Z,17.43
2018-08-31T23:50:53.074Z,17.46
2018-08-31T23:53:20.498Z,17.38
2018-08-31T23:55:47.918Z,17.42
2018-08-31T23:58:15.317Z,17.38
